Time;durP1;ratioP1;P1;durP2;ratioP2;P2;SDS_P1;SDS_P2;PMS_P1;PMS_P2;Temp;Humidity;BMP_temperature;BMP_pressure;BME280_temperature;BME280_humidity;BME280_pressure;Samples;Min_cycle;Max_cycle;Signal;HPM_P1;HPM_P2
2022/05/18 00:01:32;;;;;;;5.13;2.90;;;;;;;;;;5115156;28;20027;-65
2022/05/18 00:03:59;;;;;;;9.15;3.05;;;;;;;;;;5114830;28;20027;-65
2022/05/18 00:06:25;;;;;;;6.47;2.78;;;;;;;;;;5114877;28;20032;-65
2022/05/18 00:08:51;;;;;;;7.80;2.80;;;;;;;;;;5114971;28;20106;-65
2022/05/18 00:11:18;;;;;;;6.78;2.53;;;;;;;;;;5114611;28;20486;-65
2022/05/18 00:13:45;;;;;;;6.53;2.85;;;;;;;;;;5114625;28;20476;-67
2022/05/18 00:16:11;;;;;;;4.70;2.50;;;;;;;;;;5115029;28;20450;-65
2022/05/18 00:18:37;;;;;;;11.13;3.05;;;;;;;;;;5114794;28;20444;-67
2022/05/18 00:21:04;;;;;;;7.40;2.88;;;;;;;;;;5114666;28;20027;-66
2022/05/18 00:23:30;;;;;;;6.05;3.00;;;;;;;;;;5114618;28;20027;-67
2022/05/18 00:25:56;;;;;;;4.82;2.63;;;;;;;;;;5114644;28;20024;-66
2022/05/18 00:28:23;;;;;;;4.28;2.97;;;;;;;;;;5114513;28;20027;-67
2022/05/18 00:30:49;;;;;;;7.18;3.10;;;;;;;;;;5114140;28;20382;-67
2022/05/18 00:33:15;;;;;;;5.15;2.90;;;;;;;;;;5114215;28;20081;-65
2022/05/18 00:35:41;;;;;;;7.38;3.30;;;;;;;;;;5113864;28;20016;-67
2022/05/18 00:38:08;;;;;;;9.75;2.95;;;;;;;;;;5114177;28;20028;-67
2022/05/18 00:40:35;;;;;;;7.30;3.00;;;;;;;;;;5114189;28;20072;-66
2022/05/18 00:43:01;;;;;;;5.28;3.55;;;;;;;;;;5114170;28;20023;-65
2022/05/18 00:45:27;;;;;;;4.15;2.80;;;;;;;;;;5114243;28;20129;-67
2022/05/18 00:47:53;;;;;;;4.40;2.67;;;;;;;;;;5114154;28;20057;-67
2022/05/18 00:50:24;;;;;;;6.45;3.70;;;;;;;;;;5114226;28;20020;-67
2022/05/18 00:52:55;;;;;;;4.53;2.90;;;;;;;;;;5113741;28;20082;-66
2022/05/18 00:55:24;;;;;;;9.25;3.10;;;;;;;;;;5113983;28;20016;-67
2022/05/18 00:58:01;;;;;;;7.03;3.10;;;;;;;;;;5112844;28;20039;-65
2022/05/18 01:00:27;;;;;;;7.45;3.05;;;;;;;;;;5111113;28;20026;-66
2022/05/18 01:02:56;;;;;;;10.27;3.22;;;;;;;;;;5111110;28;20028;-67
2022/05/18 01:05:27;;;;;;;7.50;2.95;;;;;;;;;;5112386;28;20042;-65
2022/05/18 01:07:56;;;;;;;8.98;2.63;;;;;;;;;;5113549;28;20468;-67
2022/05/18 01:10:22;;;;;;;2.97;2.30;;;;;;;;;;5113608;28;20038;-67
2022/05/18 01:12:48;;;;;;;4.78;2.60;;;;;;;;;;5113309;28;20081;-66
2022/05/18 01:15:19;;;;;;;8.27;2.72;;;;;;;;;;5113746;28;20073;-67
2022/05/18 01:17:48;;;;;;;4.05;2.33;;;;;;;;;;5113456;28;20030;-66
2022/05/18 01:20:25;;;;;;;7.00;2.50;;;;;;;;;;5113269;28;20111;-66
2022/05/18 01:22:52;;;;;;;6.40;2.22;;;;;;;;;;5113415;28;20019;-66
2022/05/18 01:25:38;;;;;;;5.40;2.50;;;;;;;;;;5113751;28;20028;-66
2022/05/18 01:28:05;;;;;;;5.40;2.33;;;;;;;;;;5102476;28;20480;-66
2022/05/18 01:30:32;;;;;;;7.00;2.05;;;;;;;;;;5113305;28;20138;-67
2022/05/18 01:32:59;;;;;;;4.00;2.47;;;;;;;;;;5113146;28;20035;-66
2022/05/18 01:35:27;;;;;;;4.68;2.58;;;;;;;;;;5113181;28;20019;-65
2022/05/18 01:37:59;;;;;;;5.07;2.20;;;;;;;;;;5113341;28;20016;-66
2022/05/18 01:40:44;;;;;;;7.22;2.28;;;;;;;;;;5113300;28;20039;-66
2022/05/18 01:43:15;;;;;;;6.35;2.35;;;;;;;;;;5113065;28;20027;-66
2022/05/18 01:45:42;;;;;;;4.50;2.10;;;;;;;;;;5113371;28;20047;-67
2022/05/18 01:48:12;;;;;;;5.28;2.22;;;;;;;;;;5113022;28;20019;-67
2022/05/18 01:50:39;;;;;;;8.45;3.03;;;;;;;;;;5113220;28;20387;-67
2022/05/18 01:53:05;;;;;;;5.75;2.40;;;;;;;;;;5113053;28;20500;-66
2022/05/18 01:55:32;;;;;;;5.00;2.38;;;;;;;;;;5113109;28;20495;-67
2022/05/18 01:57:58;;;;;;;3.58;2.45;;;;;;;;;;5113105;28;20094;-65
2022/05/18 02:00:26;;;;;;;8.95;2.70;;;;;;;;;;5113304;28;20106;-67
2022/05/18 02:02:52;;;;;;;7.38;2.38;;;;;;;;;;5113332;28;20027;-67
2022/05/18 02:05:18;;;;;;;7.00;2.42;;;;;;;;;;5113076;28;20054;-67
2022/05/18 02:07:44;;;;;;;5.25;2.40;;;;;;;;;;5112978;28;20020;-67
2022/05/18 02:10:11;;;;;;;7.63;2.45;;;;;;;;;;5113159;28;20464;-68
2022/05/18 02:12:37;;;;;;;9.18;2.60;;;;;;;;;;5112621;28;20035;-66
2022/05/18 02:15:03;;;;;;;4.35;2.20;;;;;;;;;;5112887;28;20027;-66
2022/05/18 02:17:30;;;;;;;4.00;2.40;;;;;;;;;;5112734;28;20020;-66
2022/05/18 02:19:57;;;;;;;10.23;2.55;;;;;;;;;;5112645;28;20023;-66
2022/05/18 02:22:23;;;;;;;4.40;2.40;;;;;;;;;;5112811;28;20027;-67
2022/05/18 02:24:49;;;;;;;5.10;2.30;;;;;;;;;;5113054;28;20027;-66
2022/05/18 02:27:15;;;;;;;8.93;2.15;;;;;;;;;;5112756;28;20031;-65
2022/05/18 02:29:42;;;;;;;8.45;2.38;;;;;;;;;;5112822;28;20062;-66
2022/05/18 02:32:09;;;;;;;8.90;2.40;;;;;;;;;;5112762;28;20043;-66
2022/05/18 02:34:35;;;;;;;3.90;2.17;;;;;;;;;;5112784;28;20034;-65
2022/05/18 02:37:01;;;;;;;5.88;2.70;;;;;;;;;;5113069;28;20051;-67
2022/05/18 02:39:27;;;;;;;6.35;2.42;;;;;;;;;;5112860;28;20035;-66
2022/05/18 02:41:53;;;;;;;6.63;2.58;;;;;;;;;;5112637;28;20104;-65
2022/05/18 02:44:19;;;;;;;6.10;2.80;;;;;;;;;;5112814;28;20028;-66
2022/05/18 02:46:46;;;;;;;3.88;2.45;;;;;;;;;;5112993;28;20479;-66
2022/05/18 02:49:12;;;;;;;7.22;2.65;;;;;;;;;;5112867;28;20046;-66
2022/05/18 02:51:39;;;;;;;6.47;2.30;;;;;;;;;;5112266;28;20044;-66
2022/05/18 02:56:05;;;;;;;6.07;2.60;;;;;;;;;;5112579;28;20028;-66
2022/05/18 02:56:52;;;;;;;4.60;2.50;;;;;;;;;;5112495;28;20475;-67
2022/05/18 02:59:19;;;;;;;2.40;2.00;;;;;;;;;;5113148;28;20016;-66
2022/05/18 03:01:45;;;;;;;5.05;2.60;;;;;;;;;;5116167;28;20077;-66
2022/05/18 03:04:12;;;;;;;6.03;2.45;;;;;;;;;;5116286;28;20023;-67
2022/05/18 03:06:38;;;;;;;6.05;2.50;;;;;;;;;;5116154;28;20043;-66
2022/05/18 03:09:04;;;;;;;6.43;2.50;;;;;;;;;;5116359;28;20379;-66
2022/05/18 03:11:30;;;;;;;6.40;2.67;;;;;;;;;;5116150;28;20055;-66
2022/05/18 03:13:56;;;;;;;4.65;2.55;;;;;;;;;;5116041;28;20408;-67
2022/05/18 03:16:23;;;;;;;8.73;2.83;;;;;;;;;;5115917;28;20062;-67
2022/05/18 03:18:49;;;;;;;9.90;2.65;;;;;;;;;;5116228;28;20028;-66
2022/05/18 03:23:59;;;;;;;5.20;2.30;;;;;;;;;;5115975;28;20115;-67
2022/05/18 03:26:26;;;;;;;5.72;2.50;;;;;;;;;;5115396;28;20077;-66
2022/05/18 03:28:55;;;;;;;5.80;2.25;;;;;;;;;;5115326;28;20020;-65
2022/05/18 03:31:21;;;;;;;9.05;2.45;;;;;;;;;;5115883;28;20032;-66
2022/05/18 03:33:47;;;;;;;7.18;2.72;;;;;;;;;;5115333;28;20110;-65
2022/05/18 03:36:15;;;;;;;8.88;2.58;;;;;;;;;;5115358;28;20078;-66
2022/05/18 03:38:41;;;;;;;7.05;2.80;;;;;;;;;;5115745;28;20129;-65
2022/05/18 03:41:08;;;;;;;7.88;2.70;;;;;;;;;;5115621;28;20433;-65
2022/05/18 03:43:34;;;;;;;5.75;2.30;;;;;;;;;;5115807;28;20112;-66
2022/05/18 03:46:00;;;;;;;7.10;2.45;;;;;;;;;;5115714;28;20055;-66
2022/05/18 03:48:27;;;;;;;10.00;3.55;;;;;;;;;;5115263;28;20024;-66
2022/05/18 03:50:53;;;;;;;18.40;2.65;;;;;;;;;;5115492;28;20020;-66
2022/05/18 03:53:20;;;;;;;14.32;2.55;;;;;;;;;;5115266;28;20046;-66
2022/05/18 03:55:46;;;;;;;8.35;2.40;;;;;;;;;;5115118;28;20031;-67
2022/05/18 03:58:13;;;;;;;5.70;2.55;;;;;;;;;;5115249;28;20028;-67
2022/05/18 04:00:40;;;;;;;6.15;2.50;;;;;;;;;;5115197;28;20047;-67
2022/05/18 04:03:06;;;;;;;8.23;2.67;;;;;;;;;;5115172;28;20028;-65
2022/05/18 04:05:33;;;;;;;15.63;3.17;;;;;;;;;;5114825;28;20479;-65
2022/05/18 04:08:00;;;;;;;7.82;3.08;;;;;;;;;;5114920;28;20035;-66
2022/05/18 04:10:26;;;;;;;8.45;1.95;;;;;;;;;;5114976;28;20562;-65
2022/05/18 04:12:52;;;;;;;9.25;2.65;;;;;;;;;;5114652;28;20043;-65
2022/05/18 04:15:18;;;;;;;4.40;2.58;;;;;;;;;;5114892;28;20023;-66
2022/05/18 04:17:45;;;;;;;12.18;2.42;;;;;;;;;;5114763;28;20020;-66
2022/05/18 04:20:16;;;;;;;4.15;2.47;;;;;;;;;;5114911;28;20023;-66
2022/05/18 04:22:42;;;;;;;5.85;2.20;;;;;;;;;;5114948;28;20032;-66
2022/05/18 04:25:09;;;;;;;5.35;2.30;;;;;;;;;;5114493;28;20388;-65
2022/05/18 04:27:35;;;;;;;9.18;2.38;;;;;;;;;;5114415;28;20038;-65
2022/05/18 04:30:01;;;;;;;6.57;2.60;;;;;;;;;;5114125;28;20023;-65
2022/05/18 04:32:27;;;;;;;3.35;2.03;;;;;;;;;;5113684;28;20126;-65
2022/05/18 04:34:53;;;;;;;5.68;1.90;;;;;;;;;;5113703;28;20069;-66
2022/05/18 04:37:19;;;;;;;7.57;2.25;;;;;;;;;;5113630;28;20053;-66
2022/05/18 04:39:45;;;;;;;7.90;2.42;;;;;;;;;;5113773;28;20020;-66
2022/05/18 04:42:12;;;;;;;6.82;2.20;;;;;;;;;;5113871;28;20043;-65
2022/05/18 04:44:38;;;;;;;5.97;2.40;;;;;;;;;;5113410;28;20024;-65
2022/05/18 04:47:05;;;;;;;5.00;2.28;;;;;;;;;;5114303;28;20020;-65
2022/05/18 04:49:32;;;;;;;6.75;2.00;;;;;;;;;;5114093;28;20361;-65
2022/05/18 04:51:58;;;;;;;5.78;2.22;;;;;;;;;;5095840;28;20040;-67
2022/05/18 04:54:24;;;;;;;7.18;2.05;;;;;;;;;;5114302;28;20102;-67
2022/05/18 04:56:50;;;;;;;3.30;2.30;;;;;;;;;;5114109;28;20034;-67
2022/05/18 04:59:16;;;;;;;6.35;2.33;;;;;;;;;;5114338;28;20035;-67
2022/05/18 05:01:43;;;;;;;6.43;1.90;;;;;;;;;;5114240;28;20027;-67
2022/05/18 05:04:09;;;;;;;36.95;3.00;;;;;;;;;;5113849;28;20038;-66
2022/05/18 05:06:36;;;;;;;6.32;2.20;;;;;;;;;;5113502;28;20026;-67
2022/05/18 05:09:03;;;;;;;18.60;3.00;;;;;;;;;;5113886;28;20024;-67
2022/05/18 05:11:29;;;;;;;11.60;1.92;;;;;;;;;;5113626;28;20471;-67
2022/05/18 05:13:55;;;;;;;6.60;2.50;;;;;;;;;;5113311;28;20035;-67
2022/05/18 05:16:21;;;;;;;7.85;1.80;;;;;;;;;;5113154;28;20035;-66
2022/05/18 05:18:47;;;;;;;10.27;2.03;;;;;;;;;;5113556;28;20035;-67
2022/05/18 05:21:13;;;;;;;6.05;1.80;;;;;;;;;;5113709;28;20023;-66
2022/05/18 05:23:39;;;;;;;6.28;2.10;;;;;;;;;;5113317;28;20024;-67
2022/05/18 05:26:05;;;;;;;5.63;1.75;;;;;;;;;;5112978;28;20023;-69
2022/05/18 05:28:31;;;;;;;5.95;1.67;;;;;;;;;;5112882;28;20031;-67
2022/05/18 05:31:01;;;;;;;4.40;2.10;;;;;;;;;;5113086;28;20062;-68
2022/05/18 05:33:27;;;;;;;5.18;2.22;;;;;;;;;;5113259;28;20035;-68
2022/05/18 05:35:53;;;;;;;14.10;2.40;;;;;;;;;;5113434;28;20024;-67
2022/05/18 05:38:19;;;;;;;10.70;2.42;;;;;;;;;;5113524;28;20148;-67
2022/05/18 05:40:46;;;;;;;5.88;2.10;;;;;;;;;;5113465;28;20072;-67
2022/05/18 05:43:13;;;;;;;4.75;2.05;;;;;;;;;;5113721;28;20042;-67
2022/05/18 05:45:39;;;;;;;12.80;2.40;;;;;;;;;;5113503;28;20020;-68
2022/05/18 05:48:06;;;;;;;4.28;1.92;;;;;;;;;;5113598;28;20065;-67
2022/05/18 05:50:32;;;;;;;5.15;2.20;;;;;;;;;;5113730;28;20020;-69
2022/05/18 05:52:59;;;;;;;8.77;3.05;;;;;;;;;;5112939;28;20066;-68
2022/05/18 05:55:25;;;;;;;8.05;2.83;;;;;;;;;;5112482;28;20049;-68
2022/05/18 05:57:55;;;;;;;14.52;2.92;;;;;;;;;;5112653;28;20035;-68
2022/05/18 06:00:24;;;;;;;87.70;7.15;;;;;;;;;;5112251;28;20023;-68
2022/05/18 06:02:50;;;;;;;3.92;2.35;;;;;;;;;;5112233;28;20080;-67
2022/05/18 06:05:17;;;;;;;12.18;2.45;;;;;;;;;;5112604;28;20031;-69
2022/05/18 06:07:43;;;;;;;5.57;2.42;;;;;;;;;;5112506;28;20030;-68
2022/05/18 06:10:09;;;;;;;8.15;2.45;;;;;;;;;;5112888;28;20026;-67
2022/05/18 06:12:36;;;;;;;6.35;2.47;;;;;;;;;;5113168;28;20035;-67
2022/05/18 06:15:02;;;;;;;9.88;3.42;;;;;;;;;;5113118;28;20034;-69
2022/05/18 06:17:29;;;;;;;7.72;2.28;;;;;;;;;;5113280;28;20051;-67
2022/05/18 06:19:55;;;;;;;9.50;2.30;;;;;;;;;;5113040;28;20103;-67
2022/05/18 06:22:21;;;;;;;7.45;2.50;;;;;;;;;;5113115;28;20028;-70
2022/05/18 06:24:49;;;;;;;6.55;2.10;;;;;;;;;;5113160;28;20023;-67
2022/05/18 06:27:15;;;;;;;2.47;1.92;;;;;;;;;;5112746;28;20072;-68
2022/05/18 06:29:42;;;;;;;7.95;2.35;;;;;;;;;;5112525;28;20024;-66
2022/05/18 06:32:08;;;;;;;8.27;2.10;;;;;;;;;;5112216;28;20028;-69
2022/05/18 06:34:35;;;;;;;6.70;2.22;;;;;;;;;;5113922;28;20151;-70
2022/05/18 06:37:03;;;;;;;6.82;2.25;;;;;;;;;;5116528;28;20032;-72
2022/05/18 06:39:29;;;;;;;8.73;2.15;;;;;;;;;;5114921;28;20128;-72
2022/05/18 06:41:57;;;;;;;15.70;2.42;;;;;;;;;;5115533;28;20027;-72
2022/05/18 06:44:24;;;;;;;8.30;1.88;;;;;;;;;;5116948;28;20023;-70
2022/05/18 06:46:50;;;;;;;4.97;2.20;;;;;;;;;;5116853;28;20019;-70
2022/05/18 06:49:16;;;;;;;8.77;1.73;;;;;;;;;;5116690;28;20031;-70
2022/05/18 06:51:43;;;;;;;7.38;2.22;;;;;;;;;;5116157;28;20044;-69
2022/05/18 06:54:11;;;;;;;10.77;2.67;;;;;;;;;;5115570;28;20434;-74
2022/05/18 06:56:39;;;;;;;9.07;2.17;;;;;;;;;;5116633;28;20020;-74
2022/05/18 06:59:06;;;;;;;8.15;2.53;;;;;;;;;;5116615;28;20028;-74
2022/05/18 07:01:32;;;;;;;5.57;2.20;;;;;;;;;;5116719;28;20027;-71
2022/05/18 07:03:58;;;;;;;4.20;2.13;;;;;;;;;;5116738;28;20034;-71
2022/05/18 07:06:26;;;;;;;8.10;2.28;;;;;;;;;;5116583;28;20030;-72
2022/05/18 07:08:52;;;;;;;8.25;2.55;;;;;;;;;;5116466;28;20023;-72
2022/05/18 07:11:19;;;;;;;5.22;2.40;;;;;;;;;;5116513;28;20016;-74
2022/05/18 07:13:46;;;;;;;4.55;2.50;;;;;;;;;;5116452;28;20046;-71
2022/05/18 07:16:12;;;;;;;3.35;1.90;;;;;;;;;;5116432;28;20106;-71
2022/05/18 07:18:40;;;;;;;12.38;2.03;;;;;;;;;;5116338;28;20023;-71
2022/05/18 07:21:06;;;;;;;5.93;2.05;;;;;;;;;;5116205;28;20131;-71
2022/05/18 07:23:33;;;;;;;7.40;2.00;;;;;;;;;;5116216;28;20030;-71
2022/05/18 07:25:59;;;;;;;6.30;2.13;;;;;;;;;;5116110;28;20030;-71
2022/05/18 07:28:26;;;;;;;6.88;2.08;;;;;;;;;;5116098;28;20032;-71
2022/05/18 07:30:52;;;;;;;8.57;2.88;;;;;;;;;;5115606;28;20376;-71
2022/05/18 07:33:20;;;;;;;4.88;2.28;;;;;;;;;;5115380;28;20039;-71
2022/05/18 07:35:47;;;;;;;5.53;2.30;;;;;;;;;;5115324;28;20053;-71
2022/05/18 07:38:13;;;;;;;4.65;2.42;;;;;;;;;;5114235;28;20031;-71
2022/05/18 07:40:40;;;;;;;7.50;2.08;;;;;;;;;;5114960;28;20023;-71
2022/05/18 07:43:06;;;;;;;6.32;1.90;;;;;;;;;;5097405;28;20024;-71
2022/05/18 07:45:35;;;;;;;4.63;2.00;;;;;;;;;;5115430;28;20502;-70
2022/05/18 07:48:01;;;;;;;3.42;1.92;;;;;;;;;;5115628;28;20035;-70
2022/05/18 07:50:27;;;;;;;6.45;2.50;;;;;;;;;;5115551;28;20024;-71
2022/05/18 07:52:57;;;;;;;10.85;2.65;;;;;;;;;;5113904;28;20104;-71
2022/05/18 07:55:23;;;;;;;4.95;1.70;;;;;;;;;;5095788;28;20114;-71
2022/05/18 07:57:49;;;;;;;4.32;2.10;;;;;;;;;;5114369;28;20028;-70
2022/05/18 08:00:15;;;;;;;24.50;2.33;;;;;;;;;;5096516;28;20050;-70
2022/05/18 08:02:41;;;;;;;9.60;2.15;;;;;;;;;;5114895;28;20383;-71
2022/05/18 08:05:08;;;;;;;6.57;1.83;;;;;;;;;;5114639;28;20019;-70
2022/05/18 08:07:34;;;;;;;6.35;2.08;;;;;;;;;;5115040;28;20031;-70
2022/05/18 08:15:31;;;;;;;10.80;2.45;;;;;;;;;;5115319;28;20448;-71
2022/05/18 08:17:57;;;;;;;7.55;2.00;;;;;;;;;;5115151;28;20058;-72
2022/05/18 08:20:24;;;;;;;6.72;1.92;;;;;;;;;;5115143;28;20077;-71
2022/05/18 08:22:50;;;;;;;9.48;1.83;;;;;;;;;;5114678;27;20222;-76
2022/05/18 08:25:16;;;;;;;8.48;2.28;;;;;;;;;;5111947;28;20114;-70
2022/05/18 08:27:43;;;;;;;9.40;1.77;;;;;;;;;;5111970;28;20031;-71
2022/05/18 08:30:10;;;;;;;6.25;1.95;;;;;;;;;;5096005;28;20028;-70
2022/05/18 08:32:36;;;;;;;6.63;2.10;;;;;;;;;;5114781;28;20049;-70
2022/05/18 08:35:03;;;;;;;4.78;1.60;;;;;;;;;;5115032;28;20059;-74
2022/05/18 08:37:29;;;;;;;10.20;2.05;;;;;;;;;;5114855;28;20016;-71
2022/05/18 08:39:55;;;;;;;5.05;2.00;;;;;;;;;;5114749;28;20031;-70
2022/05/18 08:42:22;;;;;;;5.05;1.80;;;;;;;;;;5096462;28;20024;-73
2022/05/18 08:44:50;;;;;;;4.50;1.70;;;;;;;;;;5112878;28;20024;-71
2022/05/18 08:47:28;;;;;;;4.00;2.35;;;;;;;;;;5113953;28;20026;-70
2022/05/18 08:50:01;;;;;;;3.45;1.60;;;;;;;;;;5114662;28;20023;-70
2022/05/18 08:52:40;;;;;;;4.05;2.22;;;;;;;;;;5114029;28;20512;-70
2022/05/18 08:55:09;;;;;;;4.72;1.73;;;;;;;;;;5114504;28;20024;-70
2022/05/18 08:57:38;;;;;;;6.95;1.77;;;;;;;;;;5113883;28;20478;-70
2022/05/18 09:00:24;;;;;;;7.10;1.92;;;;;;;;;;5114184;28;20020;-74
2022/05/18 09:02:59;;;;;;;8.02;1.95;;;;;;;;;;5114117;28;20531;-70
2022/05/18 09:05:26;;;;;;;3.88;1.88;;;;;;;;;;5114185;28;20028;-70
2022/05/18 09:08:10;;;;;;;5.50;1.80;;;;;;;;;;5114206;28;20168;-70
2022/05/18 09:10:43;;;;;;;10.60;3.03;;;;;;;;;;5114217;28;20027;-70
2022/05/18 09:13:09;;;;;;;4.15;1.85;;;;;;;;;;5113990;28;20035;-70
2022/05/18 09:15:58;;;;;;;6.88;2.00;;;;;;;;;;5114097;28;20153;-70
2022/05/18 09:18:30;;;;;;;6.00;2.00;;;;;;;;;;5114180;28;20084;-70
2022/05/18 09:20:56;;;;;;;;;;;;;;;;;;5114717;28;20057;-70
2022/05/18 09:23:22;;;;;;;4.72;1.75;;;;;;;;;;5113950;28;19914;-75
2022/05/18 09:25:57;;;;;;;5.35;1.77;;;;;;;;;;5113910;28;20095;-73
2022/05/18 09:28:29;;;;;;;14.82;2.17;;;;;;;;;;5113966;28;20483;-72
2022/05/18 09:31:14;;;;;;;8.27;1.83;;;;;;;;;;5113802;28;20371;-73
2022/05/18 09:33:40;;;;;;;5.40;1.77;;;;;;;;;;5113747;28;20042;-73
2022/05/18 09:36:07;;;;;;;5.18;1.77;;;;;;;;;;5113534;28;20388;-73
2022/05/18 09:38:36;;;;;;;5.32;1.50;;;;;;;;;;5113960;28;20038;-72
2022/05/18 09:41:04;;;;;;;3.83;1.77;;;;;;;;;;5113765;28;20398;-71
2022/05/18 09:43:33;;;;;;;9.70;1.75;;;;;;;;;;5113244;28;20022;-70
2022/05/18 09:45:59;;;;;;;5.38;1.90;;;;;;;;;;5113868;28;20387;-71
2022/05/18 09:48:25;;;;;;;6.07;2.15;;;;;;;;;;5113499;28;20024;-70
2022/05/18 09:50:51;;;;;;;4.15;1.50;;;;;;;;;;5112531;28;20043;-70
2022/05/18 09:53:17;;;;;;;9.38;2.30;;;;;;;;;;5112807;28;20048;-70
2022/05/18 09:55:48;;;;;;;6.93;1.80;;;;;;;;;;5113138;28;20413;-71
2022/05/18 09:58:38;;;;;;;13.82;2.90;;;;;;;;;;5113203;28;20098;-74
2022/05/18 10:09:39;;;;;;;7.35;2.03;;;;;;;;;;5116207;28;20477;-70
2022/05/18 10:12:13;;;;;;;5.22;1.85;;;;;;;;;;5117370;28;20031;-71
2022/05/18 10:14:39;;;;;;;5.75;2.03;;;;;;;;;;5117003;28;20483;-71
2022/05/18 10:17:09;;;;;;;13.52;1.95;;;;;;;;;;5116417;28;20032;-71
2022/05/18 10:19:59;;;;;;;9.63;2.85;;;;;;;;;;5117236;28;20075;-70
2022/05/18 10:22:27;;;;;;;8.85;2.10;;;;;;;;;;5117192;28;20020;-70
2022/05/18 10:24:55;;;;;;;6.95;1.83;;;;;;;;;;5117126;28;20046;-70
2022/05/18 10:27:29;;;;;;;6.70;2.10;;;;;;;;;;5117465;28;20096;-69
2022/05/18 10:30:10;;;;;;;6.60;2.10;;;;;;;;;;5115691;28;20020;-70
2022/05/18 10:32:57;;;;;;;13.80;2.33;;;;;;;;;;5116034;28;20055;-70
2022/05/18 10:35:35;;;;;;;11.05;2.17;;;;;;;;;;5115942;28;20073;-70
2022/05/18 10:38:03;;;;;;;7.70;1.83;;;;;;;;;;5117044;28;20091;-71
2022/05/18 10:40:29;;;;;;;11.73;1.90;;;;;;;;;;5116716;28;20022;-70
2022/05/18 10:43:10;;;;;;;9.85;2.33;;;;;;;;;;5116554;28;20027;-71
2022/05/18 10:45:36;;;;;;;10.50;1.83;;;;;;;;;;5117033;28;20051;-70
2022/05/18 10:48:07;;;;;;;11.10;1.75;;;;;;;;;;5116235;28;20028;-72
2022/05/18 10:50:38;;;;;;;9.67;1.93;;;;;;;;;;5116592;28;20023;-71
2022/05/18 10:53:13;;;;;;;6.18;1.65;;;;;;;;;;5116287;28;20043;-73
2022/05/18 10:55:53;;;;;;;4.30;1.90;;;;;;;;;;5116333;28;20031;-73
2022/05/18 10:58:38;;;;;;;6.50;1.63;;;;;;;;;;5116249;28;20027;-72
2022/05/18 11:01:16;;;;;;;10.35;2.28;;;;;;;;;;5116678;28;20476;-72
2022/05/18 11:03:51;;;;;;;3.92;1.92;;;;;;;;;;5116441;28;20026;-72
2022/05/18 11:06:25;;;;;;;5.53;1.83;;;;;;;;;;5097981;28;20494;-72
2022/05/18 11:08:52;;;;;;;5.38;2.10;;;;;;;;;;5116269;28;20020;-72
2022/05/18 11:11:44;;;;;;;6.88;1.90;;;;;;;;;;5116499;28;20108;-72
2022/05/18 11:14:33;;;;;;;7.90;1.90;;;;;;;;;;5116443;28;20074;-71
2022/05/18 11:17:13;;;;;;;10.15;1.80;;;;;;;;;;5116063;28;20403;-72
2022/05/18 11:19:45;;;;;;;6.18;2.03;;;;;;;;;;5097489;28;20084;-71
2022/05/18 11:22:24;;;;;;;5.57;2.03;;;;;;;;;;5116104;28;20024;-71
2022/05/18 11:25:08;;;;;;;5.80;1.70;;;;;;;;;;5097818;28;20487;-72
2022/05/18 11:27:37;;;;;;;5.95;2.10;;;;;;;;;;5115946;28;20027;-71
2022/05/18 11:30:03;;;;;;;8.75;2.00;;;;;;;;;;5115939;28;20019;-72
2022/05/18 11:32:39;;;;;;;6.13;2.03;;;;;;;;;;5115701;28;20076;-72
2022/05/18 11:35:29;;;;;;;4.65;1.95;;;;;;;;;;5112053;28;20042;-71
2022/05/18 11:38:04;;;;;;;6.13;2.22;;;;;;;;;;5112562;28;20529;-72
2022/05/18 11:40:40;;;;;;;6.78;2.63;;;;;;;;;;5114568;28;20045;-72
2022/05/18 11:43:33;;;;;;;6.85;1.60;;;;;;;;;;5115575;28;20038;-72
2022/05/18 11:46:17;;;;;;;6.88;1.60;;;;;;;;;;5115790;28;20062;-71
2022/05/18 11:48:43;;;;;;;12.95;2.03;;;;;;;;;;5115392;28;20030;-71
2022/05/18 11:51:15;;;;;;;7.10;2.25;;;;;;;;;;5115364;28;20016;-72
2022/05/18 11:54:00;;;;;;;7.03;1.52;;;;;;;;;;5115217;28;20088;-72
2022/05/18 11:56:45;;;;;;;9.27;1.67;;;;;;;;;;5115337;28;20108;-72
2022/05/18 12:01:55;;;;;;;3.35;1.75;;;;;;;;;;5115274;28;20032;-71
2022/05/18 12:04:31;;;;;;;11.40;2.20;;;;;;;;;;5114435;28;20024;-71
2022/05/18 12:07:01;;;;;;;9.45;1.98;;;;;;;;;;5115274;28;20108;-72
2022/05/18 12:09:51;;;;;;;6.40;1.77;;;;;;;;;;5115039;28;20142;-71
2022/05/18 12:12:38;;;;;;;8.88;1.80;;;;;;;;;;5114777;28;20396;-71
2022/05/18 12:15:07;;;;;;;9.50;1.85;;;;;;;;;;5113158;28;20492;-72
2022/05/18 12:17:48;;;;;;;7.13;1.70;;;;;;;;;;5112306;28;20020;-72
2022/05/18 12:20:19;;;;;;;6.97;1.70;;;;;;;;;;5114606;28;20035;-71
2022/05/18 12:22:53;;;;;;;20.75;1.95;;;;;;;;;;5114766;28;20468;-72
2022/05/18 12:25:20;;;;;;;3.00;1.77;;;;;;;;;;5111569;28;20020;-71
2022/05/18 12:27:47;;;;;;;6.30;1.77;;;;;;;;;;5111253;28;20051;-70
2022/05/18 12:30:14;;;;;;;9.27;1.70;;;;;;;;;;5094882;28;20028;-72
2022/05/18 12:32:41;;;;;;;5.18;1.80;;;;;;;;;;5111955;28;20031;-71
2022/05/18 12:35:13;;;;;;;4.20;1.90;;;;;;;;;;5114521;28;20024;-71
2022/05/18 12:37:57;;;;;;;6.75;1.80;;;;;;;;;;5111655;28;20038;-71
2022/05/18 12:40:42;;;;;;;8.02;2.42;;;;;;;;;;5113838;28;20023;-72
2022/05/18 12:43:16;;;;;;;13.57;2.30;;;;;;;;;;5111114;28;20452;-71
2022/05/18 12:45:44;;;;;;;10.45;1.70;;;;;;;;;;5113098;28;20028;-71
2022/05/18 12:48:19;;;;;;;2.90;1.35;;;;;;;;;;5112425;28;20027;-71
2022/05/18 12:50:48;;;;;;;5.53;1.75;;;;;;;;;;5110516;28;20337;-71
2022/05/18 12:53:18;;;;;;;7.72;1.65;;;;;;;;;;5108636;28;20119;-71
2022/05/18 12:56:02;;;;;;;13.25;3.65;;;;;;;;;;5113914;28;20069;-72
2022/05/18 12:58:32;;;;;;;6.60;1.80;;;;;;;;;;5112194;28;20028;-71
2022/05/18 13:01:18;;;;;;;4.38;1.90;;;;;;;;;;5109953;28;20034;-73
2022/05/18 13:04:19;;;;;;;4.88;1.70;;;;;;;;;;5112742;28;20118;-71
2022/05/18 13:06:50;;;;;;;8.45;1.70;;;;;;;;;;5011679;28;20038;-71
2022/05/18 13:09:25;;;;;;;6.75;1.60;;;;;;;;;;5096324;28;20039;-71
2022/05/18 13:12:30;;;;;;;5.03;1.88;;;;;;;;;;5113561;28;20024;-71
2022/05/18 13:15:07;;;;;;;8.98;1.80;;;;;;;;;;5011462;28;20054;-71
2022/05/18 13:17:48;;;;;;;9.77;1.90;;;;;;;;;;5011257;28;20384;-71
2022/05/18 13:20:27;;;;;;;6.47;1.90;;;;;;;;;;5078350;28;20062;-71
2022/05/18 13:23:01;;;;;;;12.00;1.80;;;;;;;;;;5112354;28;20058;-72
2022/05/18 13:25:29;;;;;;;9.30;1.75;;;;;;;;;;5110494;28;20023;-71
2022/05/18 13:27:56;;;;;;;4.22;1.60;;;;;;;;;;5110554;28;20534;-72
2022/05/18 13:30:33;;;;;;;6.05;1.90;;;;;;;;;;5111645;28;20019;-72
2022/05/18 13:32:59;;;;;;;7.07;2.33;;;;;;;;;;5113068;28;20035;-71
2022/05/18 13:35:27;;;;;;;8.20;1.60;;;;;;;;;;5112950;28;20136;-71
2022/05/18 13:38:01;;;;;;;11.60;2.10;;;;;;;;;;5112500;28;20495;-73
2022/05/18 13:40:28;;;;;;;5.32;1.85;;;;;;;;;;5095242;28;20030;-74
2022/05/18 13:42:59;;;;;;;14.82;2.00;;;;;;;;;;5113128;28;20027;-74
2022/05/18 13:45:27;;;;;;;8.00;2.40;;;;;;;;;;5113085;28;20111;-71
2022/05/18 13:47:54;;;;;;;8.73;1.65;;;;;;;;;;5113446;28;20020;-71
2022/05/18 13:50:39;;;;;;;7.18;1.50;;;;;;;;;;5113244;28;20020;-71
2022/05/18 13:53:11;;;;;;;8.00;1.88;;;;;;;;;;5110454;28;20050;-72
2022/05/18 13:55:43;;;;;;;10.13;2.08;;;;;;;;;;5112929;28;20044;-71
2022/05/18 13:58:12;;;;;;;6.30;1.67;;;;;;;;;;5112996;28;20027;-72
2022/05/18 14:00:41;;;;;;;4.85;1.67;;;;;;;;;;5112440;28;20023;-71
2022/05/18 14:03:07;;;;;;;6.95;1.88;;;;;;;;;;5111849;28;20024;-71
2022/05/18 14:05:35;;;;;;;4.22;1.70;;;;;;;;;;5100441;28;20036;-71
2022/05/18 14:08:02;;;;;;;6.03;1.88;;;;;;;;;;5061801;28;20083;-70
2022/05/18 14:10:29;;;;;;;4.47;2.00;;;;;;;;;;5052510;28;20464;-71
2022/05/18 14:12:56;;;;;;;6.43;1.90;;;;;;;;;;5052569;28;20047;-71
2022/05/18 14:15:22;;;;;;;6.22;1.92;;;;;;;;;;5051845;28;20017;-71
2022/05/18 14:17:49;;;;;;;6.80;1.65;;;;;;;;;;5052388;28;20384;-71
2022/05/18 14:20:27;;;;;;;5.13;1.77;;;;;;;;;;5051807;28;20021;-72
2022/05/18 14:22:56;;;;;;;10.77;1.90;;;;;;;;;;5051065;28;20126;-72
2022/05/18 14:25:26;;;;;;;7.72;1.92;;;;;;;;;;5049329;28;20539;-73
2022/05/18 14:27:55;;;;;;;4.60;1.60;;;;;;;;;;5051196;28;20446;-74
2022/05/18 14:30:24;;;;;;;9.63;2.00;;;;;;;;;;5051677;28;20029;-71
2022/05/18 14:32:53;;;;;;;8.60;1.70;;;;;;;;;;5052803;28;20029;-72
2022/05/18 14:35:21;;;;;;;6.97;1.80;;;;;;;;;;5052491;28;20543;-72
2022/05/18 14:37:58;;;;;;;5.00;1.73;;;;;;;;;;5051919;28;20067;-72
2022/05/18 14:40:28;;;;;;;9.63;1.80;;;;;;;;;;5050336;28;20469;-70
2022/05/18 14:42:55;;;;;;;4.07;1.73;;;;;;;;;;5062735;28;20033;-71
2022/05/18 14:45:26;;;;;;;5.13;2.05;;;;;;;;;;5032689;28;20033;-70
2022/05/18 14:47:53;;;;;;;7.30;2.30;;;;;;;;;;5032343;28;20074;-69
2022/05/18 14:50:30;;;;;;;7.25;2.03;;;;;;;;;;5032165;28;20064;-70
2022/05/18 14:53:00;;;;;;;7.15;2.25;;;;;;;;;;5030927;28;20045;-70
2022/05/18 14:55:36;;;;;;;7.82;1.92;;;;;;;;;;5033089;28;20044;-70
2022/05/18 14:58:02;;;;;;;15.90;2.22;;;;;;;;;;5036049;28;20022;-75
2022/05/18 15:00:34;;;;;;;5.18;2.33;;;;;;;;;;5051202;28;20127;-71
2022/05/18 15:03:02;;;;;;;4.43;2.00;;;;;;;;;;5055288;28;20046;-71
2022/05/18 15:05:29;;;;;;;7.30;1.80;;;;;;;;;;5055668;28;20056;-71
2022/05/18 15:07:57;;;;;;;8.63;1.67;;;;;;;;;;5055031;28;20432;-71
2022/05/18 15:10:25;;;;;;;9.50;2.03;;;;;;;;;;5055598;28;20033;-72
2022/05/18 15:12:54;;;;;;;10.82;2.10;;;;;;;;;;5055526;28;20486;-71
2022/05/18 15:15:20;;;;;;;5.75;1.80;;;;;;;;;;5055731;28;20021;-72